Airfield :
LOGIN :

Register | Disclaimer

   EN    FR    IT 

 










Legend :    VFR   Marginal VFR   IFR   Intensive IFR   Very Intensive IFR
Visi :
Ceiling :
>= 8 km
>= 3000ft
5 to 8 km
1000 to 3000 ft
1500m to 5 km
500 to 1000 ft
800 to 1500m
200 to 500 ft
< 800m
< 200 ft
Symbols :   Thunderstorms  Fog  Heavy snow  Heavy precipitations  Wind > 20 kt
SIGMETs :     Misc.  Thunderstorms  Icing  Turbulence  Mountain Waves  Volcanic Ashes







- Airport Elevation : 782 ft
- IATA code : BGY


LIME - Orio al Serio International - Bergamo

CURRENT METAR :
  • 201250Z 21005KT 4000 -RA BR BKN006 OVC030 14/13 Q1006 NOSIG

EXPIRED METARs :
  • 201220Z 22004KT 190V250 4000 -RA BR BKN007 OVC035 14/13 Q1006 NOSIG
  • 201150Z 23005KT 200V260 4000 -RA BR BKN006 OVC035 14/13 Q1006 NOSIG
  • 201120Z 23006KT 4000 -RA BR SCT005 OVC020 14/13 Q1005 NOSIG
  • 201050Z 20003KT 4000 -RA BR BKN008 OVC015 13/12 Q1005 NOSIG
  • 201020Z 26003KT 220V310 5000 -RA BR SCT007 BKN020 14/12 Q1005 NOSIG

TAF TAF LIME
Valid from the 20 at 12:00 until the 21 at 12:00 UTC


201100Z 2012/2112 VRB05KT 7000 SCT010 BKN030
TEMPO 2012/2018 4000 RA
No reported NOTAMs for that airfield.



MET'MAP, your aeronautical weather chart ! - Copyright ORBIFLY December 2007 - Disclaimer

ORBIFLY MET'MAP TEAM :

Programming & Development : Alexandra Zaïnal
Concept & Development : Baudouin d'Aumeries
Co-Development & Prog : Marc-Olivier Méhu
Technical & hardware support : Manuel Goepfert

Contact : metmap@orbifly.com




SOURCES & CREDITS :

   NOAA